createdAt,value
2023-02-19T00:01:32.510Z,5.47
2023-02-19T00:05:00.812Z,5.50
2023-02-19T00:08:47.432Z,5.50
2023-02-19T00:12:01.967Z,5.50
2023-02-19T00:15:40.252Z,5.51
2023-02-19T00:18:30.833Z,5.50
2023-02-19T00:21:30.832Z,5.49
2023-02-19T00:24:01.801Z,5.49
2023-02-19T00:26:30.204Z,5.50
2023-02-19T00:28:59.762Z,5.52
2023-02-19T00:31:32.696Z,5.52
2023-02-19T00:34:03.682Z,5.52
2023-02-19T00:36:35.173Z,5.51
2023-02-19T00:39:04.079Z,5.49
2023-02-19T00:41:33.138Z,5.46
2023-02-19T00:44:03.076Z,5.44
2023-02-19T00:46:34.431Z,5.43
2023-02-19T00:49:05.582Z,5.44
2023-02-19T00:51:36.292Z,5.43
2023-02-19T00:54:05.330Z,5.42
2023-02-19T00:56:33.843Z,5.41
2023-02-19T00:59:02.392Z,5.38
2023-02-19T01:01:32.323Z,5.36
2023-02-19T01:04:00.833Z,5.36
2023-02-19T01:06:31.640Z,5.36
2023-02-19T01:09:00.228Z,5.35
2023-02-19T01:11:28.452Z,5.34
2023-02-19T01:13:58.882Z,5.33
2023-02-19T01:16:27.628Z,5.32
2023-02-19T01:18:56.943Z,5.29
2023-02-19T01:21:26.741Z,5.28
2023-02-19T01:23:55.738Z,5.28
2023-02-19T01:26:27.779Z,5.27
2023-02-19T01:28:56.398Z,5.28
2023-02-19T01:31:25.343Z,5.27
2023-02-19T01:33:55.766Z,5.27
2023-02-19T01:36:24.992Z,5.26
2023-02-19T01:38:53.670Z,5.25
2023-02-19T01:41:23.910Z,5.23
2023-02-19T01:44:01.387Z,5.22
2023-02-19T01:46:31.896Z,5.20
2023-02-19T01:49:04.439Z,5.19
2023-02-19T01:51:35.220Z,5.18
2023-02-19T01:54:07.293Z,5.17
2023-02-19T01:56:37.772Z,5.15
2023-02-19T01:59:07.115Z,5.13
2023-02-19T02:01:37.533Z,5.13
2023-02-19T02:04:07.331Z,5.13
2023-02-19T02:06:41.978Z,5.14
2023-02-19T02:09:29.207Z,5.16
2023-02-19T02:11:57.553Z,5.16
2023-02-19T02:14:29.466Z,5.16
2023-02-19T02:17:08.932Z,5.17
2023-02-19T02:20:01.081Z,5.17
2023-02-19T02:22:35.864Z,5.14
2023-02-19T02:25:39.799Z,5.12
2023-02-19T02:28:22.211Z,5.11
2023-02-19T02:30:54.462Z,5.10
2023-02-19T02:33:32.731Z,5.09
2023-02-19T02:36:05.620Z,5.08
2023-02-19T02:38:38.449Z,5.08
2023-02-19T02:41:07.717Z,5.09
2023-02-19T02:43:35.983Z,5.08
2023-02-19T02:46:05.082Z,5.08
2023-02-19T02:48:38.610Z,5.07
2023-02-19T02:51:14.757Z,5.03
2023-02-19T02:54:21.552Z,5.03
2023-02-19T02:56:50.932Z,5.02
2023-02-19T02:59:21.847Z,5.02
2023-02-19T03:02:11.901Z,5.02
2023-02-19T03:05:08.229Z,5.02
2023-02-19T03:07:39.235Z,5.03
2023-02-19T03:10:13.128Z,5.03
2023-02-19T03:13:02.928Z,5.04
2023-02-19T03:15:54.696Z,5.05
2023-02-19T03:18:44.594Z,5.04
2023-02-19T03:21:15.347Z,5.04
2023-02-19T03:24:03.412Z,5.04
2023-02-19T03:26:33.285Z,5.04
2023-02-19T03:29:23.022Z,5.05
2023-02-19T03:31:56.111Z,5.06
2023-02-19T03:34:26.346Z,5.08
2023-02-19T03:37:02.843Z,5.05
2023-02-19T03:39:32.011Z,5.06
2023-02-19T03:42:08.522Z,5.08
2023-02-19T03:44:41.691Z,5.10
2023-02-19T03:47:16.930Z,5.12
2023-02-19T03:49:49.741Z,5.15
2023-02-19T03:52:27.602Z,5.17
2023-02-19T03:55:03.814Z,5.19
2023-02-19T03:57:38.955Z,5.20
2023-02-19T04:00:13.641Z,5.21
2023-02-19T04:02:50.375Z,5.21
2023-02-19T04:05:22.302Z,5.21
2023-02-19T04:07:54.700Z,5.22
2023-02-19T04:10:28.224Z,5.22
2023-02-19T04:13:01.259Z,5.22
2023-02-19T04:15:33.234Z,5.22
2023-02-19T04:18:07.486Z,5.22
2023-02-19T04:20:39.956Z,5.23
2023-02-19T04:23:08.906Z,5.23
2023-02-19T04:25:40.921Z,5.24
2023-02-19T04:28:09.831Z,5.24
2023-02-19T04:30:38.153Z,5.25
2023-02-19T04:33:06.378Z,5.26
2023-02-19T04:35:34.615Z,5.25
2023-02-19T04:38:02.858Z,5.26
2023-02-19T04:40:31.084Z,5.26
2023-02-19T04:42:59.319Z,5.26
2023-02-19T04:45:27.522Z,5.26
2023-02-19T04:47:57.836Z,5.27
2023-02-19T04:50:26.018Z,5.26
2023-02-19T04:52:54.196Z,5.27
2023-02-19T04:55:22.421Z,5.27
2023-02-19T04:57:50.623Z,5.28
2023-02-19T05:00:19.260Z,5.28
2023-02-19T05:02:47.530Z,5.28
2023-02-19T05:05:16.009Z,5.27
2023-02-19T05:07:44.242Z,5.26
2023-02-19T05:10:12.498Z,5.24
2023-02-19T05:12:40.735Z,5.25
2023-02-19T05:15:08.990Z,5.25
2023-02-19T05:17:37.220Z,5.24
2023-02-19T05:20:06.552Z,5.25
2023-02-19T05:22:34.772Z,5.26
2023-02-19T05:25:03.774Z,5.26
2023-02-19T05:27:43.041Z,5.26
2023-02-19T05:30:20.818Z,5.25
2023-02-19T05:32:49.028Z,5.25
2023-02-19T05:35:17.474Z,5.23
2023-02-19T05:37:45.618Z,5.21
2023-02-19T05:40:13.942Z,5.21
2023-02-19T05:42:42.195Z,5.20
2023-02-19T05:45:10.407Z,5.20
2023-02-19T05:47:39.659Z,5.21
2023-02-19T05:50:08.559Z,5.20
2023-02-19T05:52:36.796Z,5.20
2023-02-19T05:55:06.024Z,5.19
2023-02-19T05:57:39.028Z,5.22
2023-02-19T06:00:10.160Z,5.22
2023-02-19T06:02:40.480Z,5.23
2023-02-19T06:05:09.386Z,5.23
2023-02-19T06:07:38.775Z,5.23
2023-02-19T06:10:08.413Z,5.24
2023-02-19T06:12:36.661Z,5.23
2023-02-19T06:15:06.565Z,5.23
2023-02-19T06:17:35.192Z,5.24
2023-02-19T06:20:03.868Z,5.27
2023-02-19T06:22:32.101Z,5.27
2023-02-19T06:25:00.289Z,5.28
2023-02-19T06:27:28.564Z,5.28
2023-02-19T06:29:56.774Z,5.28
2023-02-19T06:32:25.024Z,5.28
2023-02-19T06:34:53.267Z,5.28
2023-02-19T06:37:21.475Z,5.28
2023-02-19T06:39:50.373Z,5.29
2023-02-19T06:42:19.248Z,5.28
2023-02-19T06:44:47.547Z,5.29
2023-02-19T06:47:15.827Z,5.30
2023-02-19T06:49:44.031Z,5.31
2023-02-19T06:52:12.248Z,5.34
2023-02-19T06:54:40.452Z,5.36
2023-02-19T06:57:08.666Z,5.36
2023-02-19T06:59:36.848Z,5.36
2023-02-19T07:02:05.804Z,5.37
2023-02-19T07:04:34.261Z,5.40
2023-02-19T07:07:02.795Z,5.42
2023-02-19T07:09:31.069Z,5.44
2023-02-19T07:11:59.256Z,5.47
2023-02-19T07:14:28.997Z,5.49
2023-02-19T07:16:57.204Z,5.53
2023-02-19T07:19:25.480Z,5.59
2023-02-19T07:21:53.769Z,5.64
2023-02-19T07:24:22.273Z,5.69
2023-02-19T07:26:50.781Z,5.74
2023-02-19T07:29:25.508Z,5.76
2023-02-19T07:31:53.904Z,5.79
2023-02-19T07:34:22.198Z,5.81
2023-02-19T07:36:50.398Z,5.82
2023-02-19T07:39:18.653Z,5.84
2023-02-19T07:41:46.908Z,5.87
2023-02-19T07:44:27.006Z,5.89
2023-02-19T07:46:55.280Z,5.91
2023-02-19T07:49:23.535Z,5.92
2023-02-19T07:51:51.886Z,5.94
2023-02-19T07:54:20.208Z,5.96
2023-02-19T07:56:48.452Z,6.00
2023-02-19T07:59:18.739Z,6.06
2023-02-19T08:02:05.041Z,6.11
2023-02-19T08:04:33.323Z,6.12
2023-02-19T08:07:01.561Z,6.13
2023-02-19T08:09:29.861Z,6.09
2023-02-19T08:12:30.482Z,6.01
2023-02-19T08:14:58.686Z,5.92
2023-02-19T08:17:27.234Z,5.86
2023-02-19T08:19:57.599Z,5.81
2023-02-19T08:22:25.932Z,5.76
2023-02-19T08:24:54.239Z,5.72
2023-02-19T08:27:22.464Z,5.68
2023-02-19T08:29:50.704Z,5.66
2023-02-19T08:32:18.888Z,5.64
2023-02-19T08:34:47.141Z,5.64
2023-02-19T08:37:15.318Z,5.65
2023-02-19T08:39:43.563Z,5.64
2023-02-19T08:42:12.008Z,5.66
2023-02-19T08:44:40.222Z,5.66
2023-02-19T08:47:08.447Z,5.69
2023-02-19T08:49:36.666Z,5.72
2023-02-19T08:52:04.881Z,5.74
2023-02-19T08:54:33.136Z,5.77
2023-02-19T08:57:01.344Z,5.82
2023-02-19T08:59:29.869Z,5.85
2023-02-19T09:01:59.247Z,5.89
2023-02-19T09:04:27.496Z,5.90
2023-02-19T09:06:55.763Z,5.90
2023-02-19T09:09:23.954Z,5.87
2023-02-19T09:11:52.229Z,5.78
2023-02-19T09:14:20.410Z,5.64
2023-02-19T09:16:48.676Z,5.49
2023-02-19T09:19:16.847Z,5.34
2023-02-19T09:21:45.038Z,5.25
2023-02-19T09:24:13.318Z,5.18
2023-02-19T09:26:44.382Z,5.08
2023-02-19T09:29:12.568Z,4.98
2023-02-19T09:31:40.889Z,4.86
2023-02-19T09:34:09.439Z,4.76
2023-02-19T09:36:38.389Z,4.67
2023-02-19T09:39:11.825Z,4.56
2023-02-19T09:41:45.709Z,4.47
2023-02-19T09:44:20.516Z,4.40
2023-02-19T09:46:52.589Z,4.35
2023-02-19T09:49:26.402Z,4.32
2023-02-19T09:51:59.498Z,4.24
2023-02-19T09:54:31.353Z,4.17
2023-02-19T09:57:02.152Z,4.14
2023-02-19T09:59:36.646Z,4.11
2023-02-19T10:02:14.041Z,4.03
2023-02-19T10:05:30.332Z,3.95
2023-02-19T10:09:17.878Z,3.82
2023-02-19T10:11:48.229Z,3.77
2023-02-19T10:14:20.336Z,3.73
2023-02-19T10:16:49.774Z,3.67
2023-02-19T10:19:18.135Z,3.61
2023-02-19T10:21:46.496Z,3.55
2023-02-19T10:24:20.131Z,3.50
2023-02-19T10:26:50.216Z,3.43
2023-02-19T10:29:19.396Z,3.36
2023-02-19T10:31:48.138Z,3.33
2023-02-19T10:34:21.485Z,3.36
2023-02-19T10:36:51.910Z,3.38
2023-02-19T10:39:41.366Z,3.37
2023-02-19T10:42:19.581Z,3.41
2023-02-19T10:44:53.574Z,3.47
2023-02-19T10:47:25.188Z,3.51
2023-02-19T10:49:54.930Z,3.48
2023-02-19T10:52:26.429Z,3.41
2023-02-19T10:54:57.601Z,3.37
2023-02-19T10:57:33.884Z,3.37
2023-02-19T11:00:18.616Z,3.41
2023-02-19T11:02:46.967Z,3.45
2023-02-19T11:05:19.836Z,3.52
2023-02-19T11:07:50.239Z,3.59
2023-02-19T11:10:27.054Z,3.61
2023-02-19T11:12:58.707Z,3.65
2023-02-19T11:15:28.050Z,3.67
2023-02-19T11:17:58.887Z,3.61
2023-02-19T11:20:29.039Z,3.61
2023-02-19T11:23:01.308Z,3.60
2023-02-19T11:25:30.759Z,3.60
2023-02-19T11:28:06.144Z,3.60
2023-02-19T11:30:38.161Z,3.64
2023-02-19T11:33:26.769Z,3.72
2023-02-19T11:36:00.468Z,3.83
2023-02-19T11:38:29.098Z,3.95
2023-02-19T11:41:04.910Z,4.05
2023-02-19T11:43:47.784Z,4.10
2023-02-19T11:46:22.230Z,4.13
2023-02-19T11:49:01.951Z,4.12
2023-02-19T11:51:52.742Z,4.07
2023-02-19T11:54:35.641Z,4.11
2023-02-19T11:57:15.562Z,4.15
2023-02-19T11:59:48.441Z,4.20
2023-02-19T12:02:50.069Z,4.23
2023-02-19T12:05:28.914Z,4.20
2023-02-19T12:08:29.847Z,4.16
2023-02-19T12:11:11.019Z,4.10
2023-02-19T12:13:57.679Z,4.00
2023-02-19T12:16:31.299Z,3.90
2023-02-19T12:19:25.312Z,3.88
2023-02-19T12:22:06.074Z,3.81
2023-02-19T12:24:59.606Z,3.77
2023-02-19T12:27:39.705Z,3.77
2023-02-19T12:30:26.703Z,3.83
2023-02-19T12:33:25.692Z,3.86
2023-02-19T12:36:05.822Z,3.95
2023-02-19T12:38:42.822Z,3.98
2023-02-19T12:41:21.351Z,3.96
2023-02-19T12:43:56.552Z,3.95
2023-02-19T12:46:31.988Z,3.92
2023-02-19T12:49:09.400Z,3.88
2023-02-19T12:51:44.265Z,3.85
2023-02-19T12:54:22.902Z,3.82
2023-02-19T12:56:58.964Z,3.80
2023-02-19T12:59:33.343Z,3.80
2023-02-19T13:02:12.559Z,3.83
2023-02-19T13:04:47.125Z,3.85
2023-02-19T13:07:20.256Z,3.91
2023-02-19T13:09:54.223Z,3.95
2023-02-19T13:12:26.633Z,3.99
2023-02-19T13:14:59.285Z,4.01
2023-02-19T13:17:34.556Z,3.99
2023-02-19T13:20:15.150Z,3.99
2023-02-19T13:23:09.062Z,3.99
2023-02-19T13:25:49.618Z,4.02
2023-02-19T13:28:31.965Z,4.04
2023-02-19T13:31:25.567Z,4.10
2023-02-19T13:34:07.676Z,4.15
2023-02-19T13:36:50.022Z,4.16
2023-02-19T13:39:24.493Z,4.15
2023-02-19T13:41:55.604Z,4.15
2023-02-19T13:44:28.678Z,4.15
2023-02-19T13:46:57.568Z,4.14
2023-02-19T13:49:41.516Z,4.14
2023-02-19T13:52:40.569Z,4.11
2023-02-19T13:55:46.518Z,3.99
2023-02-19T13:58:52.993Z,3.88
2023-02-19T14:02:13.002Z,3.76
2023-02-19T14:04:53.542Z,3.69
2023-02-19T14:07:46.987Z,3.68
2023-02-19T14:10:51.017Z,3.68
2023-02-19T14:13:50.587Z,3.67
2023-02-19T14:16:50.476Z,3.67
2023-02-19T14:19:51.110Z,3.64
2023-02-19T14:23:01.155Z,3.61
2023-02-19T14:25:35.142Z,3.57
2023-02-19T14:28:06.584Z,3.54
2023-02-19T14:30:43.282Z,3.50
2023-02-19T14:33:11.853Z,3.48
2023-02-19T14:35:43.053Z,3.45
2023-02-19T14:38:18.024Z,3.42
2023-02-19T14:40:48.121Z,3.39
2023-02-19T14:43:19.514Z,3.37
2023-02-19T14:45:51.143Z,3.35
2023-02-19T14:48:21.479Z,3.32
2023-02-19T14:50:53.816Z,3.27
2023-02-19T14:53:24.452Z,3.27
2023-02-19T14:55:54.783Z,3.28
2023-02-19T14:58:28.229Z,3.27
2023-02-19T15:00:56.690Z,3.24
2023-02-19T15:03:28.654Z,3.20
2023-02-19T15:05:58.380Z,3.17
2023-02-19T15:08:32.238Z,3.07
2023-02-19T15:11:02.520Z,3.03
2023-02-19T15:13:31.719Z,3.02
2023-02-19T15:16:01.333Z,2.99
2023-02-19T15:18:34.871Z,2.95
2023-02-19T15:21:06.222Z,2.93
2023-02-19T15:23:36.637Z,2.91
2023-02-19T15:26:05.248Z,2.88
2023-02-19T15:28:34.495Z,2.88
2023-02-19T15:31:15.278Z,2.87
2023-02-19T15:33:51.713Z,2.84
2023-02-19T15:36:27.103Z,2.83
2023-02-19T15:38:58.763Z,2.80
2023-02-19T15:41:29.529Z,2.75
2023-02-19T15:44:06.896Z,2.72
2023-02-19T15:46:37.160Z,2.68
2023-02-19T15:49:13.358Z,2.65
2023-02-19T15:51:46.879Z,2.61
2023-02-19T15:54:27.271Z,2.59
2023-02-19T15:56:59.006Z,2.57
2023-02-19T15:59:35.720Z,2.56
2023-02-19T16:02:05.585Z,2.56
2023-02-19T16:04:35.226Z,2.55
2023-02-19T16:07:03.844Z,2.55
2023-02-19T16:09:34.766Z,2.55
2023-02-19T16:12:18.578Z,2.53
2023-02-19T16:14:48.520Z,2.52
2023-02-19T16:17:20.193Z,2.52
2023-02-19T16:19:53.460Z,2.51
2023-02-19T16:22:24.372Z,2.50
2023-02-19T16:24:55.445Z,2.49
2023-02-19T16:27:33.169Z,2.48
2023-02-19T16:30:07.456Z,2.45
2023-02-19T16:32:35.770Z,2.42
2023-02-19T16:35:04.161Z,2.39
2023-02-19T16:37:41.571Z,2.38
2023-02-19T16:40:50.518Z,2.37
2023-02-19T16:43:30.687Z,2.33
2023-02-19T16:46:01.269Z,2.31
2023-02-19T16:48:30.236Z,2.30
2023-02-19T16:50:59.079Z,2.28
2023-02-19T16:53:28.661Z,2.26
2023-02-19T16:55:57.006Z,2.23
2023-02-19T16:58:25.282Z,2.19
2023-02-19T17:00:53.677Z,2.16
2023-02-19T17:03:24.558Z,2.15
2023-02-19T17:05:53.732Z,2.15
2023-02-19T17:08:34.557Z,2.13
2023-02-19T17:11:05.662Z,2.11
2023-02-19T17:13:33.965Z,2.09
2023-02-19T17:16:02.792Z,2.07
2023-02-19T17:18:31.109Z,2.04
2023-02-19T17:21:10.562Z,1.99
2023-02-19T17:23:41.290Z,1.94
2023-02-19T17:26:13.545Z,1.89
2023-02-19T17:28:41.764Z,1.84
2023-02-19T17:31:11.181Z,1.81
2023-02-19T17:33:39.913Z,1.77
2023-02-19T17:36:15.765Z,1.72
2023-02-19T17:38:44.161Z,1.66
2023-02-19T17:41:12.816Z,1.60
2023-02-19T17:43:41.289Z,1.53
2023-02-19T17:46:15.300Z,1.49
2023-02-19T17:48:43.552Z,1.45
2023-02-19T17:51:12.315Z,1.40
2023-02-19T17:53:41.191Z,1.36
2023-02-19T17:56:11.487Z,1.32
2023-02-19T17:58:42.538Z,1.29
2023-02-19T18:01:13.228Z,1.25
2023-02-19T18:03:41.795Z,1.19
2023-02-19T18:06:32.141Z,1.14
2023-02-19T18:09:17.561Z,1.07
2023-02-19T18:11:46.331Z,1.02
2023-02-19T18:14:14.684Z,0.97
2023-02-19T18:16:49.399Z,0.93
2023-02-19T18:19:18.999Z,0.87
2023-02-19T18:21:49.756Z,0.81
2023-02-19T18:24:18.853Z,0.77
2023-02-19T18:26:47.048Z,0.74
2023-02-19T18:29:15.500Z,0.70
2023-02-19T18:31:44.067Z,0.66
2023-02-19T18:34:18.457Z,0.62
2023-02-19T18:36:46.930Z,0.56
2023-02-19T18:39:15.744Z,0.51
2023-02-19T18:41:48.885Z,0.44
2023-02-19T18:44:20.990Z,0.40
2023-02-19T18:46:49.902Z,0.37
2023-02-19T18:49:18.266Z,0.34
2023-02-19T18:51:46.975Z,0.32
2023-02-19T18:54:15.440Z,0.30
2023-02-19T18:56:45.230Z,0.28
2023-02-19T18:59:14.178Z,0.25
2023-02-19T19:01:43.654Z,0.22
2023-02-19T19:04:12.227Z,0.21
2023-02-19T19:06:40.516Z,0.20
2023-02-19T19:09:08.986Z,0.18
2023-02-19T19:11:37.585Z,0.16
2023-02-19T19:14:06.252Z,0.15
2023-02-19T19:16:34.653Z,0.13
2023-02-19T19:19:03.284Z,0.11
2023-02-19T19:21:31.951Z,0.09
2023-02-19T19:24:00.207Z,0.07
2023-02-19T19:26:28.747Z,0.03
2023-02-19T19:28:57.245Z,0.01
2023-02-19T19:54:21.710Z,0.98
2023-02-19T19:56:50.258Z,0.91
2023-02-19T19:59:19.185Z,0.78
2023-02-19T20:01:51.608Z,0.66
2023-02-19T20:04:21.607Z,0.54
2023-02-19T20:06:50.526Z,0.42
2023-02-19T20:09:24.475Z,0.32
2023-02-19T20:11:53.933Z,0.24
2023-02-19T20:14:23.731Z,0.18
2023-02-19T20:16:52.397Z,0.12
2023-02-19T20:19:21.197Z,0.09
2023-02-19T20:21:54.291Z,0.03
2023-02-19T20:24:28.801Z,-0.03
2023-02-19T20:26:59.517Z,-0.07
2023-02-19T20:29:29.177Z,-0.12
2023-02-19T20:31:59.232Z,-0.17
2023-02-19T20:34:29.978Z,-0.21
2023-02-19T20:36:58.381Z,-0.23
2023-02-19T20:39:28.511Z,-0.25
2023-02-19T20:41:58.659Z,-0.27
2023-02-19T20:44:28.376Z,-0.29
2023-02-19T20:46:58.226Z,-0.31
2023-02-19T20:49:28.569Z,-0.32
2023-02-19T20:51:58.944Z,-0.33
2023-02-19T20:54:28.862Z,-0.35
2023-02-19T20:56:58.797Z,-0.35
2023-02-19T20:59:30.031Z,-0.36
2023-02-19T21:01:58.655Z,-0.38
2023-02-19T21:04:27.241Z,-0.39
2023-02-19T21:06:55.641Z,-0.43
2023-02-19T21:09:24.206Z,-0.46
2023-02-19T21:11:52.714Z,-0.47
2023-02-19T21:14:20.962Z,-0.46
2023-02-19T21:16:49.221Z,-0.45
2023-02-19T21:19:17.501Z,-0.45
2023-02-19T21:21:45.759Z,-0.46
2023-02-19T21:24:15.193Z,-0.47
2023-02-19T21:26:44.055Z,-0.48
2023-02-19T21:29:18.167Z,-0.50
2023-02-19T21:31:48.232Z,-0.52
2023-02-19T21:34:18.467Z,-0.53
2023-02-19T21:36:46.684Z,-0.54
2023-02-19T21:39:17.262Z,-0.55
2023-02-19T21:41:45.468Z,-0.56
2023-02-19T21:44:14.007Z,-0.56
2023-02-19T21:46:42.472Z,-0.57
2023-02-19T21:49:11.509Z,-0.59
2023-02-19T21:51:41.185Z,-0.59
2023-02-19T21:54:15.365Z,-0.61
2023-02-19T21:56:43.812Z,-0.63
2023-02-19T21:59:13.023Z,-0.65
2023-02-19T22:01:42.431Z,-0.67
2023-02-19T22:04:13.504Z,-0.69
2023-02-19T22:06:41.886Z,-0.70
2023-02-19T22:09:12.943Z,-0.71
2023-02-19T22:11:41.541Z,-0.71
2023-02-19T22:14:09.891Z,-0.72
2023-02-19T22:16:38.095Z,-0.72
2023-02-19T22:19:06.333Z,-0.72
2023-02-19T22:21:34.904Z,-0.72
2023-02-19T22:24:03.971Z,-0.74
2023-02-19T22:26:34.976Z,-0.75
2023-02-19T22:29:06.319Z,-0.75
2023-02-19T22:31:34.772Z,-0.74
2023-02-19T22:34:03.837Z,-0.75
2023-02-19T22:36:33.595Z,-0.75
2023-02-19T22:39:03.172Z,-0.76
2023-02-19T22:41:31.432Z,-0.75
2023-02-19T22:43:59.699Z,-0.75
2023-02-19T22:46:30.233Z,-0.75
2023-02-19T22:49:01.962Z,-0.75
2023-02-19T22:51:30.446Z,-0.73
2023-02-19T22:54:00.817Z,-0.73
2023-02-19T22:56:29.581Z,-0.73
2023-02-19T22:58:58.294Z,-0.73
2023-02-19T23:01:26.605Z,-0.73
2023-02-19T23:03:56.348Z,-0.73
2023-02-19T23:06:26.748Z,-0.73
2023-02-19T23:08:57.503Z,-0.71
2023-02-19T23:11:27.954Z,-0.70
2023-02-19T23:13:56.530Z,-0.70
2023-02-19T23:16:25.421Z,-0.69
2023-02-19T23:18:54.465Z,-0.69
2023-02-19T23:21:23.138Z,-0.68
2023-02-19T23:23:51.432Z,-0.69
2023-02-19T23:26:20.089Z,-0.68
2023-02-19T23:28:48.281Z,-0.67
2023-02-19T23:31:17.442Z,-0.66
2023-02-19T23:33:46.182Z,-0.66
2023-02-19T23:36:15.847Z,-0.64
2023-02-19T23:38:45.069Z,-0.63
2023-02-19T23:41:15.264Z,-0.63
2023-02-19T23:43:44.109Z,-0.61
2023-02-19T23:46:16.393Z,-0.60
2023-02-19T23:48:45.254Z,-0.59
2023-02-19T23:51:13.984Z,-0.58
2023-02-19T23:53:42.219Z,-0.56
2023-02-19T23:56:10.491Z,-0.56
2023-02-19T23:58:38.802Z,-0.55
